»·PEaware :: N115LW KLSN-KDVO

N115LW :: KLSN-KDVO

FLIGHT INFORMATION

Flight Status: Arrived
Operator: Privately registered:
United States
More flights under this callsign
Pilot: Lee W. (44)
Aircraft: BEECH AIRCRAFT DEBONAIR BONANZA
(BE33)
More flights by this aircraft type
Origin: KLSN Los Banos Mun
United States
Destination: KDVO Gnoss
United States
More flights between these airports :: More routes between these airports
Route: VOLTA V109 ECA V585 LODDI COMIC OAKEY PITTS CCR
File this flight plan on PilotEdge
Remarks:
Altitude:
(Current/Filed)
4,000ft
Speed:
(Current/Filed)
170kts
Departed: 18-May-12 06:55 PM
Arrived: 18-May-12 07:45 PM
Distance/Time
Traveled:
103nm/0:50
Distance/Time
To Go:
Arrived

Flight Plot

Page will automatically refresh every two minutes.


Map Options




Map Legend


Flown Route
Filed Route
Departure Airport
Arrival Airport
Navaid (VOR, NDB)
Fix

Horizontal Profiles

Position Reports

Time Latitude Longitude Heading Altitude Ground
Speed
18-May-12 18:45 37.062522 -120.870233 248 122ft 0kts
18-May-12 18:46 37.062882 -120.869259 359 122ft 0kts
18-May-12 18:47 37.062457 -120.870714 359 122ft 0kts
18-May-12 18:48 37.062457 -120.870714 359 122ft 0kts
18-May-12 18:49 37.062457 -120.870714 359 122ft 0kts
18-May-12 18:50 37.062457 -120.870714 359 122ft 0kts
18-May-12 18:51 37.062457 -120.870714 359 122ft 0kts
18-May-12 18:52 37.060077 -120.868242 152 122ft 14kts
18-May-12 18:53 37.059347 -120.867038 344 122ft 6kts
18-May-12 18:54 37.070159 -120.874193 333 333ft 87kts
18-May-12 18:55 37.097149 -120.886617 337 1407ft 112kts
18-May-12 18:56 37.127465 -120.900972 338 2425ft 120kts
18-May-12 18:57 37.158658 -120.916110 337 3423ft 120kts
18-May-12 18:58 37.190685 -120.931966 336 4020ft 143kts
18-May-12 18:59 37.230760 -120.951735 336 4012ft 160kts
18-May-12 19:00 37.271885 -120.972364 335 4014ft 160kts
18-May-12 19:01 37.314744 -120.988050 339 4014ft 161kts
18-May-12 19:02 37.364896 -121.005755 340 4016ft 161kts
18-May-12 19:03 37.400830 -121.018517 339 4014ft 161kts
18-May-12 19:04 37.443733 -121.033623 341 4011ft 161kts
18-May-12 19:05 37.486667 -121.048733 340 4015ft 161kts
18-May-12 19:06 37.529951 -121.064005 340 4013ft 161kts
18-May-12 19:07 37.567238 -121.077237 341 4014ft 160kts
18-May-12 19:08 37.607908 -121.091703 340 4009ft 160kts
18-May-12 19:09 37.649139 -121.106052 341 4010ft 162kts
18-May-12 19:09 37.674493 -121.114650 339 4005ft 162kts
18-May-12 19:10 37.703224 -121.124429 340 4005ft 163kts
18-May-12 19:11 37.732124 -121.134455 340 4006ft 163kts
18-May-12 19:12 37.775880 -121.149855 340 4007ft 164kts
18-May-12 19:13 37.819679 -121.165356 340 4007ft 164kts
18-May-12 19:14 37.861253 -121.186743 329 4008ft 163kts
18-May-12 19:15 37.901497 -121.211927 330 4007ft 163kts
18-May-12 19:16 37.941674 -121.236966 330 4007ft 164kts
18-May-12 19:17 37.982126 -121.262139 330 4007ft 163kts
18-May-12 19:18 38.022374 -121.287177 330 4007ft 163kts
18-May-12 19:19 38.062740 -121.312708 321 4001ft 162kts
18-May-12 19:20 38.067039 -121.366163 268 4007ft 160kts
18-May-12 19:21 38.064910 -121.422743 269 4007ft 160kts
18-May-12 19:22 38.063079 -121.478915 269 4007ft 160kts
18-May-12 19:23 38.061358 -121.534885 268 4005ft 158kts
18-May-12 19:24 38.059690 -121.589637 268 4005ft 156kts
18-May-12 19:25 38.058169 -121.644352 267 3877ft 158kts
18-May-12 19:26 38.056568 -121.698480 266 3878ft 154kts
18-May-12 19:27 38.055006 -121.742314 266 3885ft 155kts
18-May-12 19:28 38.053175 -121.795195 266 3895ft 156kts
18-May-12 19:29 38.051095 -121.856944 266 3906ft 158kts
18-May-12 19:31 38.047821 -121.953321 266 3917ft 161kts
18-May-12 19:32 38.046016 -122.007287 266 3915ft 161kts
18-May-12 19:33 38.046968 -122.059190 283 3918ft 162kts
18-May-12 19:34 38.057069 -122.110230 282 3917ft 162kts
18-May-12 19:35 38.068234 -122.164591 281 3925ft 161kts
18-May-12 19:36 38.080821 -122.228387 281 3919ft 166kts
18-May-12 19:37 38.090099 -122.275904 281 3752ft 177kts
18-May-12 19:38 38.102671 -122.337701 282 3264ft 185kts
18-May-12 19:39 38.115099 -122.400365 281 2942ft 179kts
18-May-12 19:40 38.126639 -122.460338 284 2929ft 164kts
18-May-12 19:41 38.139357 -122.508836 291 1812ft 140kts
18-May-12 19:42 38.156860 -122.544193 300 833ft 102kts
18-May-12 19:43 38.156243 -122.564555 167 231ft 79kts
18-May-12 19:44 38.141295 -122.554345 156 6ft 20kts
18-May-12 19:45 38.140283 -122.552288 325 5ft 0kts

Navigation Log

Ident Type
Flight plan parsing failed, navigation log unavailable